Aparecida do Rio Doce, Brazil
Current Conditions -  °F | °C
As of 2:00 AM on Wednesday 22 Oct 2014 (Local Time) from SBGO Reporting Station
Few Clouds Few Clouds  
Wind Chill: 75°   Ceiling: Unl
Heat Index: 75°   Visibility: 6mi
Dew Point: 59°   Wind: 9mph
Humidity: 57%   Direction: 70°ENE
Pressure: 29.97"   Gusts: NA
Location:  18.3°S, 51.15°W
Report Text: SBGO 220400Z 07008KT 9999 FEW040TCU 24/15 Q1015
Loading
Personal Weather Stations






























Interactive Weather Map
Tropical Storm Tracking
New forecast layout! Learn more

10-Day Weather Forecast

Advertisements
Track Severe Weather on mobile